TimeEST,TemperatureF,Dew PointF,Humidity,Sea Level PressureIn,VisibilityMPH,Wind Direction,Wind SpeedMPH,Gust SpeedMPH,PrecipitationIn,Events,Conditions,WindDirDegrees,DateUTC
12:10 AM,53.6,53.6,100,30.31,10.0,SW,8.1,-,N/A,,Overcast,230,2005-01-01 05:10:00
12:46 AM,53.6,53.6,100,30.31,10.0,SW,5.8,-,N/A,,Overcast,220,2005-01-01 05:46:00
12:53 AM,54.0,54.0,100,30.31,10.0,SW,6.9,-,N/A,,Overcast,230,2005-01-01 05:53:00
1:22 AM,53.6,53.6,100,30.31,10.0,SW,6.9,-,N/A,,Overcast,220,2005-01-01 06:22:00
1:37 AM,53.6,53.6,100,30.31,10.0,SW,5.8,-,N/A,,Overcast,220,2005-01-01 06:37:00
1:53 AM,54.0,54.0,100,30.32,10.0,SW,6.9,-,N/A,,Overcast,230,2005-01-01 06:53:00
2:02 AM,53.6,53.6,100,30.32,10.0,SW,6.9,-,N/A,,Overcast,230,2005-01-01 07:02:00
2:53 AM,53.1,53.1,100,30.33,10.0,SSW,5.8,-,N/A,,Overcast,210,2005-01-01 07:53:00
3:53 AM,52.0,52.0,100,30.32,10.0,SSW,5.8,-,N/A,,Partly Cloudy,210,2005-01-01 08:53:00
4:22 AM,51.8,51.8,100,30.32,10.0,SW,5.8,-,N/A,,Mostly Cloudy,220,2005-01-01 09:22:00
4:39 AM,51.8,51.8,100,30.32,10.0,SW,4.6,-,N/A,,Mostly Cloudy,220,2005-01-01 09:39:00
4:53 AM,51.1,51.1,100,30.33,10.0,SSW,5.8,-,N/A,,Partly Cloudy,210,2005-01-01 09:53:00
5:44 AM,51.8,51.8,100,30.34,10.0,SW,4.6,-,N/A,,Mostly Cloudy,230,2005-01-01 10:44:00
5:53 AM,52.0,52.0,100,30.34,9.0,Variable,3.5,-,N/A,,Mostly Cloudy,0,2005-01-01 10:53:00
6:13 AM,51.8,51.8,100,30.34,9.0,SSW,4.6,-,N/A,,Overcast,200,2005-01-01 11:13:00
6:53 AM,52.0,52.0,100,30.36,8.0,SW,3.5,-,N/A,,Overcast,220,2005-01-01 11:53:00
7:37 AM,51.8,51.8,100,30.37,7.0,SSW,3.5,-,N/A,,Overcast,210,2005-01-01 12:37:00
7:53 AM,52.0,52.0,100,30.38,9.0,SW,3.5,-,N/A,,Overcast,220,2005-01-01 12:53:00
8:25 AM,51.8,51.8,100,30.39,7.0,SSW,3.5,-,N/A,,Overcast,200,2005-01-01 13:25:00
8:53 AM,52.0,52.0,100,30.42,7.0,Calm,Calm,-,N/A,,Overcast,0,2005-01-01 13:53:00
9:06 AM,51.8,51.8,100,30.42,8.0,SSW,3.5,-,N/A,,Overcast,210,2005-01-01 14:06:00
9:53 AM,53.1,53.1,100,30.44,9.0,SSW,3.5,-,N/A,,Overcast,210,2005-01-01 14:53:00
10:30 AM,55.4,55.4,100,30.45,10.0,SW,6.9,-,N/A,,Mostly Cloudy,230,2005-01-01 15:30:00
10:53 AM,55.0,54.0,96,30.45,10.0,Variable,5.8,-,N/A,,Overcast,0,2005-01-01 15:53:00
11:53 AM,57.0,52.0,83,30.43,10.0,Variable,3.5,-,N/A,,Mostly Cloudy,0,2005-01-01 16:53:00
12:15 PM,57.2,51.8,82,30.42,10.0,Variable,3.5,-,N/A,,Overcast,0,2005-01-01 17:15:00
12:53 PM,59.0,52.0,78,30.41,10.0,Calm,Calm,-,N/A,,Mostly Cloudy,0,2005-01-01 17:53:00
1:12 PM,60.8,51.8,72,30.41,10.0,NNW,4.6,-,N/A,,Mostly Cloudy,340,2005-01-01 18:12:00
1:53 PM,60.1,51.1,72,30.41,10.0,SW,6.9,-,N/A,,Mostly Cloudy,230,2005-01-01 18:53:00
2:53 PM,60.1,51.1,72,30.41,10.0,WSW,5.8,-,N/A,,Mostly Cloudy,240,2005-01-01 19:53:00
3:53 PM,59.0,51.1,75,30.43,10.0,SW,8.1,-,N/A,,Scattered Clouds,230,2005-01-01 20:53:00
4:53 PM,57.0,50.0,77,30.44,10.0,SW,5.8,-,N/A,,Scattered Clouds,220,2005-01-01 21:53:00
5:53 PM,55.0,51.1,86,30.45,10.0,SW,5.8,-,N/A,,Mostly Cloudy,220,2005-01-01 22:53:00
6:53 PM,52.0,50.0,93,30.46,9.0,Calm,Calm,-,N/A,,Clear,0,2005-01-01 23:53:00
7:53 PM,48.0,48.0,100,30.47,8.0,Calm,Calm,-,N/A,,Clear,0,2005-01-02 00:53:00
8:53 PM,46.9,46.9,100,30.46,8.0,ENE,3.5,-,N/A,,Clear,70,2005-01-02 01:53:00
9:53 PM,48.0,48.0,100,30.47,7.0,Calm,Calm,-,N/A,,Clear,0,2005-01-02 02:53:00
10:53 PM,46.0,46.0,100,30.47,5.0,Calm,Calm,-,N/A,,Mostly Cloudy,0,2005-01-02 03:53:00
11:53 PM,46.0,46.0,100,30.46,5.0,Calm,Calm,-,N/A,,Overcast,0,2005-01-02 04:53:00